Time;durP1;ratioP1;P1;durP2;ratioP2;P2;SDS_P1;SDS_P2;PMS_P1;PMS_P2;Temp;Humidity;BMP_temperature;BMP_pressure;BME280_temperature;BME280_humidity;BME280_pressure;Samples;Min_cycle;Max_cycle;Signal;HPM_P1;HPM_P2
2021/06/25 00:01:14;;;;;;;7.10;2.40;;;25.80;54.30;;;;;;6128928;28;80437;-67
2021/06/25 00:04:15;;;;;;;3.88;2.45;;;25.60;54.80;;;;;;6124469;28;80346;-67
2021/06/25 00:07:15;;;;;;;5.57;2.60;;;25.30;55.70;;;;;;6134186;28;80795;-68
2021/06/25 00:10:16;;;;;;;3.83;2.35;;;25.00;56.50;;;;;;6132495;28;80986;-67
2021/06/25 00:13:17;;;;;;;8.48;2.33;;;24.90;57.00;;;;;;6122720;28;80506;-67
2021/06/25 00:16:17;;;;;;;5.03;2.13;;;24.80;57.20;;;;;;6132511;28;80823;-67
2021/06/25 00:19:18;;;;;;;2.08;1.80;;;24.80;57.20;;;;;;6131276;28;80627;-67
2021/06/25 00:22:18;;;;;;;4.25;2.33;;;24.90;57.00;;;;;;6132877;28;81050;-68
2021/06/25 00:25:19;;;;;;;3.72;2.30;;;24.50;57.70;;;;;;6135457;28;80752;-68
2021/06/25 00:28:19;;;;;;;2.55;2.00;;;24.40;58.40;;;;;;6134563;28;80617;-67
2021/06/25 00:31:20;;;;;;;6.93;2.00;;;24.20;58.70;;;;;;6130735;28;80321;-67
2021/06/25 00:34:20;;;;;;;6.75;2.30;;;24.20;58.90;;;;;;6122728;28;80298;-67
2021/06/25 00:37:21;;;;;;;3.60;1.95;;;24.30;58.50;;;;;;6130123;28;80288;-67
2021/06/25 00:40:21;;;;;;;6.10;2.60;;;24.60;58.00;;;;;;6118733;28;80605;-68
2021/06/25 00:43:22;;;;;;;4.60;1.90;;;24.90;57.10;;;;;;6132347;28;80515;-68
2021/06/25 00:46:23;;;;;;;3.75;2.30;;;25.20;56.70;;;;;;6135891;28;80320;-69
2021/06/25 00:49:23;;;;;;;5.57;2.22;;;25.50;56.10;;;;;;6157831;28;81994;-68
2021/06/25 00:52:24;;;;;;;4.00;2.00;;;25.70;55.90;;;;;;6134492;28;80424;-70
2021/06/25 00:55:24;;;;;;;7.18;2.30;;;25.90;56.00;;;;;;6138345;28;80904;-69
2021/06/25 00:58:25;;;;;;;5.03;2.05;;;26.00;55.50;;;;;;6132217;28;80906;-70
2021/06/25 01:01:25;;;;;;;4.85;2.30;;;26.10;55.40;;;;;;6130794;28;80086;-69
2021/06/25 01:04:26;;;;;;;4.03;2.22;;;26.10;55.00;;;;;;6140082;28;80599;-68
2021/06/25 01:07:26;;;;;;;3.53;2.55;;;26.20;55.00;;;;;;6137821;28;80464;-68
2021/06/25 01:10:27;;;;;;;7.30;2.65;;;26.30;55.00;;;;;;6134719;28;80521;-66
2021/06/25 01:13:27;;;;;;;5.13;2.72;;;26.40;55.40;;;;;;6126910;28;80440;-67
2021/06/25 01:16:28;;;;;;;6.55;3.38;;;26.40;54.70;;;;;;6134043;28;81097;-66
2021/06/25 01:19:28;;;;;;;4.97;2.70;;;26.40;54.80;;;;;;6133282;28;80404;-66
2021/06/25 01:22:35;;;;;;;4.93;2.58;;;26.40;54.80;;;;;;6134004;28;81257;-66
2021/06/25 01:25:35;;;;;;;5.45;2.70;;;26.40;54.60;;;;;;6130131;28;80212;-66
2021/06/25 01:28:36;;;;;;;6.03;3.50;;;26.40;54.40;;;;;;6136695;28;82105;-66
2021/06/25 01:31:36;;;;;;;7.63;3.50;;;26.50;54.70;;;;;;6128757;28;82435;-66
2021/06/25 01:34:37;;;;;;;6.43;2.80;;;26.50;54.50;;;;;;6124174;28;82290;-66
2021/06/25 01:37:37;;;;;;;5.78;2.95;;;26.60;54.40;;;;;;6135099;28;81520;-66
2021/06/25 01:40:38;;;;;;;5.72;3.03;;;26.60;54.40;;;;;;6135322;28;88098;-66
2021/06/25 01:43:39;;;;;;;5.95;3.28;;;26.60;54.20;;;;;;6136567;28;80558;-66
2021/06/25 01:46:40;;;;;;;4.80;2.63;;;26.70;54.40;;;;;;6132778;28;80444;-66
2021/06/25 01:49:40;;;;;;;10.00;2.40;;;26.70;54.20;;;;;;6131783;28;80211;-66
2021/06/25 01:52:41;;;;;;;4.82;3.10;;;26.70;54.30;;;;;;6126538;28;80546;-66
2021/06/25 01:55:41;;;;;;;6.20;3.00;;;26.70;54.10;;;;;;6135978;28;81224;-66
2021/06/25 01:58:42;;;;;;;6.30;2.47;;;26.70;54.10;;;;;;6132125;28;80711;-65
2021/06/25 02:01:42;;;;;;;6.00;2.83;;;26.80;54.10;;;;;;6120485;28;80414;-67
2021/06/25 02:04:43;;;;;;;4.25;2.80;;;26.70;54.00;;;;;;6123418;28;80989;-67
2021/06/25 02:07:43;;;;;;;6.53;2.63;;;26.70;54.00;;;;;;6133894;28;80712;-68
2021/06/25 02:10:44;;;;;;;7.90;3.72;;;26.70;54.00;;;;;;6135037;28;80600;-67
2021/06/25 02:13:44;;;;;;;4.55;3.10;;;26.70;54.10;;;;;;6132942;28;80200;-67
2021/06/25 02:16:45;;;;;;;8.05;3.83;;;26.70;54.10;;;;;;6125008;28;80366;-67
2021/06/25 02:19:45;;;;;;;8.73;3.35;;;26.70;54.00;;;;;;6122756;28;80674;-66
2021/06/25 02:22:46;;;;;;;8.10;4.57;;;26.70;54.00;;;;;;6132143;28;81213;-67
2021/06/25 02:25:46;;;;;;;9.95;4.47;;;26.70;54.00;;;;;;6132942;28;80368;-67
2021/06/25 02:28:47;;;;;;;11.90;4.55;;;26.70;54.10;;;;;;6127113;28;81386;-67
2021/06/25 02:31:47;;;;;;;10.50;5.50;;;26.70;54.10;;;;;;6131484;28;83171;-67
2021/06/25 02:34:48;;;;;;;11.18;4.57;;;26.70;54.10;;;;;;6132357;28;81613;-67
2021/06/25 02:37:48;;;;;;;11.20;4.80;;;26.70;54.20;;;;;;6130430;28;80573;-66
2021/06/25 02:40:49;;;;;;;8.73;4.75;;;26.80;54.20;;;;;;6131144;28;83931;-66
2021/06/25 02:43:50;;;;;;;13.15;5.28;;;26.70;54.30;;;;;;6131894;28;80567;-66
2021/06/25 02:46:50;;;;;;;8.13;4.65;;;26.70;54.30;;;;;;6125896;28;80797;-66
2021/06/25 02:49:51;;;;;;;9.95;5.70;;;26.70;54.60;;;;;;6129273;28;81566;-66
2021/06/25 02:52:52;;;;;;;12.93;5.40;;;26.60;54.70;;;;;;6123973;28;80612;-66
2021/06/25 02:55:52;;;;;;;11.20;5.45;;;26.40;54.70;;;;;;6132442;28;80357;-65
2021/06/25 02:58:53;;;;;;;14.48;6.63;;;26.10;55.30;;;;;;6131084;28;80304;-66
2021/06/25 03:01:54;;;;;;;16.75;6.28;;;25.50;57.10;;;;;;6133739;28;80449;-66
2021/06/25 03:04:54;;;;;;;11.23;5.63;;;25.50;57.60;;;;;;6124478;28;80304;-67
2021/06/25 03:07:55;;;;;;;12.18;5.28;;;25.70;57.00;;;;;;6134737;28;80889;-67
2021/06/25 03:10:55;;;;;;;11.00;5.57;;;25.90;56.80;;;;;;6132801;28;80559;-67
2021/06/25 03:13:56;;;;;;;11.35;5.00;;;26.10;56.40;;;;;;6129732;28;80679;-66
2021/06/25 03:16:56;;;;;;;9.90;5.20;;;26.10;56.10;;;;;;6117577;28;80298;-66
2021/06/25 03:19:57;;;;;;;10.45;5.13;;;26.20;56.40;;;;;;6099287;28;82825;-66
2021/06/25 03:22:57;;;;;;;7.78;4.50;;;26.20;56.20;;;;;;6102406;28;81180;-66
2021/06/25 03:25:58;;;;;;;12.13;4.60;;;26.30;56.20;;;;;;6115614;28;80476;-66
2021/06/25 03:28:58;;;;;;;10.07;4.40;;;26.20;56.00;;;;;;6132902;28;80956;-66
2021/06/25 03:31:59;;;;;;;9.93;4.22;;;26.30;56.00;;;;;;6125743;28;80382;-66
2021/06/25 03:34:59;;;;;;;7.18;4.78;;;26.40;56.10;;;;;;6129786;28;80778;-66
2021/06/25 03:38:00;;;;;;;7.70;3.95;;;26.40;56.00;;;;;;6115498;28;80338;-66
2021/06/25 03:41:00;;;;;;;11.25;4.50;;;26.40;55.70;;;;;;6116150;28;81143;-67
2021/06/25 03:44:01;;;;;;;9.95;4.80;;;26.40;55.70;;;;;;6130731;28;81694;-67
2021/06/25 03:47:02;;;;;;;10.88;4.45;;;26.50;55.80;;;;;;6131172;28;80848;-67
2021/06/25 03:50:02;;;;;;;12.43;4.93;;;26.50;55.70;;;;;;6123655;28;81117;-67
2021/06/25 03:53:03;;;;;;;10.75;4.80;;;26.50;55.70;;;;;;6132163;28;80534;-66
2021/06/25 03:56:10;;;;;;;15.65;5.00;;;26.50;55.70;;;;;;6130416;28;81816;-67
2021/06/25 03:59:10;;;;;;;8.55;5.00;;;26.50;55.90;;;;;;6126836;28;80740;-66
2021/06/25 04:02:11;;;;;;;10.13;5.45;;;26.50;55.90;;;;;;6119802;28;80847;-66
2021/06/25 04:05:11;;;;;;;11.90;6.18;;;26.50;55.90;;;;;;6104336;28;81178;-67
2021/06/25 04:08:12;;;;;;;12.45;6.05;;;26.50;56.00;;;;;;6108128;28;80293;-66
2021/06/25 04:11:12;;;;;;;12.90;5.70;;;26.50;56.00;;;;;;6116127;28;80835;-64
2021/06/25 04:14:13;;;;;;;11.85;5.15;;;26.30;55.90;;;;;;6129391;28;87496;-67
2021/06/25 04:17:14;;;;;;;10.13;4.82;;;26.30;56.10;;;;;;6129954;28;80438;-67
2021/06/25 04:20:15;;;;;;;8.98;4.63;;;26.30;56.20;;;;;;6120906;28;80553;-64
2021/06/25 04:23:15;;;;;;;8.35;4.35;;;26.30;56.20;;;;;;6121718;28;80482;-64
2021/06/25 04:26:16;;;;;;;13.65;4.57;;;26.40;56.50;;;;;;6128991;28;80998;-65
2021/06/25 04:29:16;;;;;;;11.77;4.10;;;26.40;56.40;;;;;;6133457;28;80426;-63
2021/06/25 04:32:20;;;;;;;10.95;3.40;;;26.50;56.40;;;;;;6129956;28;81214;-66
2021/06/25 04:35:20;;;;;;;11.45;3.90;;;26.60;56.80;;;;;;6131447;28;80535;-66
2021/06/25 04:38:21;;;;;;;11.65;3.72;;;26.60;56.30;;;;;;6125749;28;80702;-65
2021/06/25 04:41:21;;;;;;;11.10;3.22;;;26.60;56.10;;;;;;6124471;28;82882;-65
2021/06/25 04:44:22;;;;;;;7.90;3.90;;;26.70;56.20;;;;;;6129807;28;80825;-64
2021/06/25 04:47:22;;;;;;;9.40;3.42;;;26.70;56.70;;;;;;6129068;28;81002;-65
2021/06/25 04:50:23;;;;;;;7.00;3.75;;;26.70;56.10;;;;;;6124963;28;82026;-65
2021/06/25 04:53:23;;;;;;;6.25;3.25;;;26.80;56.70;;;;;;6127514;28;83685;-65
2021/06/25 04:56:24;;;;;;;6.72;3.13;;;26.80;56.50;;;;;;6129447;28;80867;-65
2021/06/25 04:59:26;;;;;;;5.95;3.67;;;26.90;57.40;;;;;;6127563;28;81352;-66
2021/06/25 05:02:27;;;;;;;8.15;3.42;;;26.90;57.50;;;;;;6120208;28;80668;-67
2021/06/25 05:05:27;;;;;;;6.55;3.42;;;26.90;57.50;;;;;;6121736;28;81140;-66
2021/06/25 05:08:28;;;;;;;7.70;3.47;;;26.90;57.40;;;;;;6126532;28;87881;-66
2021/06/25 05:11:28;;;;;;;7.93;3.30;;;27.00;57.00;;;;;;6156722;28;81030;-66
2021/06/25 05:14:29;;;;;;;11.18;3.60;;;27.00;56.70;;;;;;6135664;28;80628;-66
2021/06/25 05:17:30;;;;;;;11.40;3.78;;;27.00;57.20;;;;;;6136916;28;80434;-66
2021/06/25 05:20:30;;;;;;;7.45;3.00;;;27.00;56.80;;;;;;6118020;28;81113;-65
2021/06/25 05:23:31;;;;;;;12.45;3.88;;;27.00;56.90;;;;;;6131701;28;80901;-64
2021/06/25 05:26:31;;;;;;;8.30;3.33;;;27.10;56.90;;;;;;6129639;28;80247;-65
2021/06/25 05:29:32;;;;;;;7.93;3.63;;;27.10;57.10;;;;;;6126992;28;80311;-65
2021/06/25 05:32:33;;;;;;;5.20;3.40;;;27.10;56.90;;;;;;6133298;28;80025;-65
2021/06/25 05:35:34;;;;;;;11.77;3.65;;;27.20;57.00;;;;;;6136212;28;80224;-64
2021/06/25 05:38:34;;;;;;;8.57;3.42;;;27.20;56.80;;;;;;6135638;28;80530;-64
2021/06/25 05:41:35;;;;;;;7.30;3.67;;;27.10;57.20;;;;;;6129600;28;80791;-62
2021/06/25 05:44:35;;;;;;;11.13;3.92;;;27.10;57.10;;;;;;6118811;28;80690;-65
2021/06/25 05:47:36;;;;;;;9.82;3.72;;;27.10;57.60;;;;;;6106403;28;82562;-63
2021/06/25 05:50:37;;;;;;;13.85;3.72;;;27.10;57.60;;;;;;6123246;28;80089;-64
2021/06/25 05:53:38;;;;;;;8.82;3.28;;;27.10;57.60;;;;;;6125523;28;81042;-65
2021/06/25 05:56:39;;;;;;;9.85;3.88;;;27.20;57.50;;;;;;6135504;28;80222;-64
2021/06/25 05:59:39;;;;;;;7.07;3.50;;;27.20;57.40;;;;;;6136586;28;81109;-65
2021/06/25 06:02:40;;;;;;;10.10;3.63;;;27.20;57.20;;;;;;6132302;28;82463;-65
2021/06/25 06:05:42;;;;;;;7.03;3.88;;;27.20;56.70;;;;;;6137156;28;80744;-65
2021/06/25 06:08:42;;;;;;;6.18;3.10;;;27.10;56.20;;;;;;6135706;28;80438;-65
2021/06/25 06:11:43;;;;;;;4.97;3.28;;;27.10;56.30;;;;;;6136107;28;80766;-65
2021/06/25 06:14:43;;;;;;;9.70;3.90;;;27.10;56.10;;;;;;6132747;28;83421;-64
2021/06/25 06:17:47;;;;;;;13.75;3.80;;;27.10;56.30;;;;;;6134540;28;81383;-65
2021/06/25 06:20:47;;;;;;;5.35;3.63;;;27.10;56.60;;;;;;6131197;28;80471;-65
2021/06/25 06:34:00;;;;;;;10.88;3.53;;;27.10;56.10;;;;;;6135459;28;81006;-66
2021/06/25 06:37:00;;;;;;;11.20;3.75;;;27.10;56.20;;;;;;6134010;28;80353;-66
2021/06/25 06:40:01;;;;;;;16.30;3.90;;;27.10;56.00;;;;;;6133191;28;80777;-66
2021/06/25 06:43:01;;;;;;;14.23;4.60;;;27.10;56.10;;;;;;6132435;28;81045;-66
2021/06/25 06:46:02;;;;;;;7.30;3.58;;;27.10;56.20;;;;;;6132910;28;81028;-66
2021/06/25 06:49:02;;;;;;;6.93;3.35;;;27.10;56.40;;;;;;6139461;28;80360;-66
2021/06/25 06:52:05;;;;;;;11.88;4.47;;;27.10;56.00;;;;;;6130265;28;80645;-65
2021/06/25 06:55:06;;;;;;;8.82;3.17;;;27.10;55.80;;;;;;6130664;28;84745;-67
2021/06/25 06:58:06;;;;;;;12.70;3.38;;;27.10;55.80;;;;;;6137176;28;80893;-68
2021/06/25 07:01:07;;;;;;;8.35;3.50;;;27.10;56.00;;;;;;6133982;28;81330;-68
2021/06/25 07:04:08;;;;;;;7.32;3.30;;;27.10;55.90;;;;;;6132163;28;81664;-67
2021/06/25 07:07:09;;;;;;;7.60;3.97;;;27.10;55.80;;;;;;6132692;28;81255;-67
2021/06/25 07:10:09;;;;;;;11.98;3.90;;;27.10;55.90;;;;;;6132555;28;80920;-67
2021/06/25 07:13:10;;;;;;;11.07;3.72;;;27.10;56.00;;;;;;6133074;28;80356;-67
2021/06/25 07:16:12;;;;;;;13.10;4.03;;;27.10;55.70;;;;;;6126141;28;81376;-67
2021/06/25 07:19:13;;;;;;;9.15;4.78;;;27.00;55.00;;;;;;6134646;28;80474;-67
2021/06/25 07:22:13;;;;;;;8.77;4.95;;;27.00;55.90;;;;;;6128081;28;80420;-66
2021/06/25 07:25:14;;;;;;;6.00;3.90;;;27.00;56.80;;;;;;6134022;28;80257;-68
2021/06/25 07:28:14;;;;;;;8.48;4.13;;;27.00;57.00;;;;;;6130458;28;80481;-66
2021/06/25 07:31:15;;;;;;;8.63;4.68;;;27.10;57.20;;;;;;6132807;28;80095;-67
2021/06/25 07:34:15;;;;;;;9.90;4.25;;;27.10;57.10;;;;;;6128678;28;80948;-65
2021/06/25 07:37:16;;;;;;;9.27;3.78;;;27.10;56.90;;;;;;6129686;28;80511;-68
2021/06/25 07:40:16;;;;;;;10.15;4.43;;;27.10;56.80;;;;;;6136052;28;80775;-67
2021/06/25 07:43:17;;;;;;;14.70;6.75;;;27.10;56.50;;;;;;6121809;28;81395;-67
2021/06/25 07:46:17;;;;;;;10.88;6.00;;;27.10;56.40;;;;;;6132297;28;83688;-67
2021/06/25 07:49:18;;;;;;;6.63;4.03;;;27.10;56.30;;;;;;6124136;28;80365;-66
2021/06/25 07:52:18;;;;;;;8.48;4.20;;;27.10;56.20;;;;;;6135063;28;80245;-67
2021/06/25 07:55:19;;;;;;;6.20;3.42;;;27.10;56.20;;;;;;6129570;28;80622;-66
2021/06/25 07:58:20;;;;;;;9.18;3.90;;;27.20;56.20;;;;;;6129397;28;80920;-67
2021/06/25 08:01:22;;;;;;;9.40;3.47;;;27.20;56.30;;;;;;6132128;28;81679;-67
2021/06/25 08:04:26;;;;;;;9.00;3.75;;;27.20;56.40;;;;;;6131320;28;80393;-66
2021/06/25 08:07:26;;;;;;;5.82;3.30;;;27.20;56.90;;;;;;6133029;28;80850;-65
2021/06/25 08:10:27;;;;;;;7.30;3.65;;;27.20;56.60;;;;;;6134665;28;80541;-66
2021/06/25 08:13:27;;;;;;;9.57;4.13;;;27.20;56.90;;;;;;6128152;28;81019;-66
2021/06/25 08:16:28;;;;;;;6.78;3.53;;;27.20;56.20;;;;;;6131700;28;80514;-65
2021/06/25 08:19:28;;;;;;;5.43;3.30;;;27.20;56.30;;;;;;6135724;28;81061;-66
2021/06/25 08:22:29;;;;;;;10.80;3.55;;;27.20;56.00;;;;;;6133236;28;80445;-66
2021/06/25 08:25:29;;;;;;;7.88;3.70;;;27.20;55.50;;;;;;6134180;28;80425;-66
2021/06/25 08:28:30;;;;;;;6.93;3.55;;;27.20;55.60;;;;;;6131255;28;80408;-65
2021/06/25 08:31:30;;;;;;;9.57;3.97;;;27.20;55.10;;;;;;6131035;28;81615;-64
2021/06/25 08:34:31;;;;;;;7.28;3.15;;;27.10;55.00;;;;;;6129394;28;81693;-66
2021/06/25 08:37:32;;;;;;;10.35;3.80;;;27.10;54.90;;;;;;6129633;28;80554;-66
2021/06/25 08:40:32;;;;;;;7.60;4.15;;;27.10;55.00;;;;;;6131948;28;81742;-65
2021/06/25 08:43:33;;;;;;;7.20;2.90;;;27.10;55.20;;;;;;6134403;28;82167;-65
2021/06/25 08:46:33;;;;;;;7.45;2.85;;;27.10;54.70;;;;;;6129405;28;80936;-66
2021/06/25 08:49:34;;;;;;;9.00;3.78;;;27.10;54.70;;;;;;6122667;28;81148;-66
2021/06/25 08:52:35;;;;;;;7.90;3.17;;;27.10;54.30;;;;;;6136265;28;80954;-65
2021/06/25 08:55:43;;;;;;;7.75;3.30;;;27.10;54.30;;;;;;6127569;28;80509;-65
2021/06/25 08:58:43;;;;;;;7.05;2.85;;;27.10;54.30;;;;;;6133378;28;80428;-66
2021/06/25 09:01:44;;;;;;;10.43;3.53;;;27.10;54.30;;;;;;6135672;28;81672;-66
2021/06/25 09:04:44;;;;;;;10.10;3.30;;;27.10;54.40;;;;;;6131829;28;80752;-65
2021/06/25 09:07:45;;;;;;;6.82;2.90;;;27.10;54.50;;;;;;6145203;28;80596;-67
2021/06/25 09:10:47;;;;;;;7.00;3.17;;;27.20;54.40;;;;;;6136750;28;80404;-66
2021/06/25 09:13:47;;;;;;;6.43;3.08;;;27.20;54.30;;;;;;6141777;28;81574;-65
2021/06/25 09:16:48;;;;;;;10.02;3.40;;;27.20;54.40;;;;;;6135905;28;81653;-65
2021/06/25 09:19:48;;;;;;;3.33;2.63;;;27.30;54.80;;;;;;6128108;28;80512;-68
2021/06/25 09:22:49;;;;;;;9.57;3.38;;;27.30;54.80;;;;;;6130678;28;80533;-68
2021/06/25 09:25:49;;;;;;;7.10;3.53;;;27.30;55.40;;;;;;6134449;28;81161;-67
2021/06/25 09:28:51;;;;;;;7.90;3.50;;;27.30;55.00;;;;;;6135602;28;80417;-67
2021/06/25 09:31:51;;;;;;;9.15;2.88;;;27.30;55.30;;;;;;6133314;28;81490;-67
2021/06/25 09:34:53;;;;;;;8.52;3.05;;;27.30;55.70;;;;;;6132353;28;81090;-66
2021/06/25 09:37:53;;;;;;;10.63;3.60;;;27.30;55.90;;;;;;6128436;28;81552;-65
2021/06/25 09:40:54;;;;;;;10.10;3.70;;;27.30;55.90;;;;;;6127160;28;80821;-65
2021/06/25 09:43:54;;;;;;;9.38;3.30;;;27.30;56.20;;;;;;6128893;28;81521;-66
2021/06/25 09:46:55;;;;;;;13.45;3.58;;;27.30;55.90;;;;;;6126913;28;80535;-67
2021/06/25 09:49:56;;;;;;;5.82;3.10;;;27.30;56.00;;;;;;6141134;28;83239;-66
2021/06/25 09:52:57;;;;;;;8.30;3.30;;;27.30;55.20;;;;;;6136519;28;80860;-66
2021/06/25 09:56:00;;;;;;;4.88;2.83;;;27.30;55.20;;;;;;6132549;28;80654;-67
2021/06/25 09:59:01;;;;;;;5.80;3.08;;;27.30;55.30;;;;;;6135745;28;81543;-66
2021/06/25 10:02:02;;;;;;;7.55;3.45;;;27.30;55.30;;;;;;6132421;28;82860;-66
2021/06/25 10:05:08;;;;;;;4.72;2.95;;;27.30;55.60;;;;;;6132420;28;80985;-66
2021/06/25 10:08:08;;;;;;;6.80;3.53;;;27.30;55.40;;;;;;6143963;28;83349;-66
2021/06/25 10:11:09;;;;;;;7.00;3.25;;;27.30;56.30;;;;;;6131653;28;80616;-65
2021/06/25 10:14:09;;;;;;;8.00;4.05;;;27.30;55.30;;;;;;6133040;28;80632;-65
2021/06/25 10:17:11;;;;;;;13.23;5.03;;;27.40;55.40;;;;;;6134731;28;80442;-66
2021/06/25 10:20:11;;;;;;;10.02;4.53;;;27.40;55.50;;;;;;6133404;28;81646;-66
2021/06/25 10:23:12;;;;;;;11.60;4.80;;;27.40;55.60;;;;;;6133718;28;80931;-66
2021/06/25 10:26:12;;;;;;;13.40;4.93;;;27.40;55.70;;;;;;6127227;28;80579;-66
2021/06/25 10:29:13;;;;;;;13.48;4.85;;;27.40;55.80;;;;;;6128064;28;81177;-66
2021/06/25 10:32:15;;;;;;;8.18;4.00;;;27.40;56.00;;;;;;6134295;28;82730;-66
2021/06/25 10:35:16;;;;;;;9.02;4.20;;;27.40;55.70;;;;;;6132594;28;81551;-67
2021/06/25 10:38:17;;;;;;;6.78;4.40;;;27.40;56.10;;;;;;6127566;28;80889;-66
2021/06/25 10:41:19;;;;;;;9.75;4.28;;;27.40;56.20;;;;;;6122559;28;81586;-67
2021/06/25 10:44:19;;;;;;;13.05;4.20;;;27.30;56.10;;;;;;6131032;28;80433;-66
2021/06/25 10:47:20;;;;;;;10.20;4.70;;;27.30;56.40;;;;;;6132726;28;82835;-66
2021/06/25 10:50:20;;;;;;;20.85;4.95;;;27.30;56.80;;;;;;6131358;28;80816;-65
2021/06/25 10:53:21;;;;;;;7.95;3.97;;;27.30;56.80;;;;;;6132214;28;80503;-66
2021/06/25 10:56:22;;;;;;;13.18;4.30;;;27.20;57.10;;;;;;6130533;28;80614;-66
2021/06/25 10:59:23;;;;;;;7.05;3.78;;;27.20;57.50;;;;;;6130570;28;80709;-65
2021/06/25 11:02:24;;;;;;;9.60;4.25;;;27.00;57.80;;;;;;6132864;28;80817;-65
2021/06/25 11:05:24;;;;;;;10.25;4.53;;;27.10;58.00;;;;;;6125915;28;81697;-66
2021/06/25 11:08:25;;;;;;;4.95;3.33;;;27.10;57.90;;;;;;6125787;28;82539;-65
2021/06/25 11:11:27;;;;;;;12.20;3.85;;;27.10;57.90;;;;;;6136488;28;80609;-65
2021/06/25 11:14:27;;;;;;;6.85;4.05;;;27.10;58.00;;;;;;6130273;28;81662;-65
2021/06/25 11:17:28;;;;;;;12.55;4.78;;;27.10;58.30;;;;;;6132943;28;81690;-65
2021/06/25 11:20:28;;;;;;;14.15;8.80;;;27.00;58.50;;;;;;6133966;28;81245;-66
2021/06/25 11:23:29;;;;;;;19.73;7.45;;;27.10;58.90;;;;;;6134570;28;81208;-65
2021/06/25 11:26:30;;;;;;;11.88;6.05;;;27.00;59.00;;;;;;6127233;28;80711;-64
2021/06/25 11:29:30;;;;;;;14.00;5.95;;;27.00;58.60;;;;;;6113477;28;80522;-65
2021/06/25 11:32:31;;;;;;;11.35;5.85;;;27.00;58.90;;;;;;6129478;28;80673;-64
2021/06/25 11:35:31;;;;;;;11.43;5.28;;;27.00;59.00;;;;;;6127291;28;81963;-65
2021/06/25 11:38:32;;;;;;;9.57;4.70;;;27.00;58.70;;;;;;6125238;28;80345;-65
2021/06/25 11:41:35;;;;;;;7.53;4.80;;;27.00;59.20;;;;;;6134291;28;80508;-64
2021/06/25 11:44:36;;;;;;;11.73;5.05;;;27.00;59.40;;;;;;6132882;28;80578;-64
2021/06/25 11:47:42;;;;;;;11.15;5.47;;;27.00;59.70;;;;;;6131491;28;83055;-65
2021/06/25 11:50:42;;;;;;;5.80;4.88;;;27.10;59.60;;;;;;6128893;28;80293;-65
2021/06/25 11:53:43;;;;;;;8.77;4.90;;;27.10;59.40;;;;;;6132246;28;80384;-66
2021/06/25 11:56:43;;;;;;;9.50;4.80;;;27.10;59.40;;;;;;6122834;28;82204;-65
2021/06/25 11:59:44;;;;;;;11.70;4.75;;;27.10;59.40;;;;;;6132191;28;80602;-66
2021/06/25 12:02:45;;;;;;;10.05;5.70;;;27.10;59.50;;;;;;6133262;28;80644;-66
2021/06/25 12:05:45;;;;;;;10.60;4.97;;;27.20;59.40;;;;;;6130574;28;83577;-66
2021/06/25 12:08:46;;;;;;;9.07;5.88;;;27.20;59.60;;;;;;6132193;28;81243;-65
2021/06/25 12:11:46;;;;;;;9.85;5.93;;;27.20;59.40;;;;;;6132524;28;80811;-65
2021/06/25 12:14:47;;;;;;;9.82;6.18;;;27.20;58.90;;;;;;6134028;28;81448;-65
2021/06/25 12:17:47;;;;;;;11.57;7.22;;;27.20;59.80;;;;;;6130142;28;80419;-66
2021/06/25 12:20:48;;;;;;;12.82;8.48;;;27.20;59.10;;;;;;6134591;28;80506;-66
2021/06/25 12:23:48;;;;;;;20.00;9.55;;;27.20;60.40;;;;;;6124290;28;80569;-66
2021/06/25 12:26:49;;;;;;;20.58;10.57;;;27.20;60.90;;;;;;6132932;28;80463;-67
2021/06/25 12:29:49;;;;;;;15.85;10.82;;;27.20;60.90;;;;;;6126870;28;83157;-65
2021/06/25 12:32:50;;;;;;;16.13;11.25;;;27.20;60.90;;;;;;6132425;28;82734;-66
2021/06/25 12:35:50;;;;;;;15.57;11.00;;;27.20;60.80;;;;;;6128494;28;85717;-66
2021/06/25 12:38:55;;;;;;;16.98;11.63;;;27.20;60.40;;;;;;6129677;28;83893;-65
2021/06/25 12:41:59;;;;;;;15.90;10.20;;;27.20;60.70;;;;;;6118992;28;84159;-65
2021/06/25 12:45:00;;;;;;;13.50;10.43;;;27.20;60.20;;;;;;6127221;28;83657;-65
2021/06/25 12:48:00;;;;;;;19.83;11.35;;;27.20;60.30;;;;;;6123739;28;83546;-64
2021/06/25 12:51:01;;;;;;;18.67;10.85;;;27.20;59.90;;;;;;6120918;28;84470;-66
2021/06/25 12:54:02;;;;;;;14.48;10.63;;;27.20;59.80;;;;;;6127922;28;84197;-65
2021/06/25 12:57:02;;;;;;;13.70;10.10;;;27.20;59.60;;;;;;6131733;28;83218;-64
2021/06/25 13:00:03;;;;;;;15.90;10.75;;;27.20;59.60;;;;;;6128299;28;83090;-65
2021/06/25 13:03:03;;;;;;;16.25;10.77;;;27.20;59.60;;;;;;6124487;28;84333;-67
2021/06/25 13:06:04;;;;;;;26.00;14.18;;;27.30;59.30;;;;;;6127667;28;84212;-66
2021/06/25 13:09:04;;;;;;;67.35;27.30;;;27.30;58.80;;;;;;6129575;28;83343;-65
2021/06/25 13:12:05;;;;;;;70.07;30.65;;;27.30;58.70;;;;;;6127427;28;86086;-63
2021/06/25 13:15:05;;;;;;;59.95;24.00;;;27.30;58.60;;;;;;6127886;28;83628;-64
2021/06/25 13:18:06;;;;;;;106.72;40.65;;;27.30;58.70;;;;;;6128543;28;84298;-66
2021/06/25 13:21:06;;;;;;;91.68;37.50;;;27.30;57.90;;;;;;6126420;28;83525;-65
2021/06/25 13:24:07;;;;;;;98.43;37.72;;;27.30;58.00;;;;;;6129107;28;83168;-64
2021/06/25 13:27:08;;;;;;;65.38;29.10;;;27.30;58.00;;;;;;6125914;28;84837;-65
2021/06/25 13:30:08;;;;;;;56.75;25.58;;;27.40;58.00;;;;;;6126720;28;85089;-65
2021/06/25 13:33:09;;;;;;;47.75;22.48;;;27.40;57.80;;;;;;6134582;28;84235;-66
2021/06/25 13:36:09;;;;;;;38.08;17.63;;;27.40;57.70;;;;;;6131211;28;83175;-64
2021/06/25 13:39:10;;;;;;;25.08;13.48;;;27.40;57.40;;;;;;6131755;28;83120;-65
2021/06/25 13:42:10;;;;;;;17.85;11.68;;;27.40;57.30;;;;;;6131382;28;83524;-64
2021/06/25 13:45:11;;;;;;;15.85;10.38;;;27.40;57.60;;;;;;6127370;28;86624;-65
2021/06/25 13:48:11;;;;;;;18.25;10.30;;;27.40;56.80;;;;;;6132635;28;83173;-65
2021/06/25 13:51:12;;;;;;;18.35;10.00;;;27.40;56.80;;;;;;6130213;28;84124;-64
2021/06/25 13:54:12;;;;;;;14.68;10.50;;;27.40;56.80;;;;;;6133376;28;83462;-64
2021/06/25 13:57:13;;;;;;;20.95;10.68;;;27.40;56.90;;;;;;6130595;28;83072;-64
2021/06/25 14:00:13;;;;;;;17.85;10.02;;;27.40;56.80;;;;;;6131057;28;83230;-64
2021/06/25 14:03:14;;;;;;;17.30;10.48;;;27.40;57.00;;;;;;6110869;28;84265;-64
2021/06/25 14:06:14;;;;;;;13.95;9.98;;;27.40;57.10;;;;;;6120830;28;84384;-64
2021/06/25 14:09:15;;;;;;;16.00;10.25;;;27.40;57.20;;;;;;6122729;28;83187;-65
2021/06/25 14:12:16;;;;;;;13.82;10.25;;;27.50;57.20;;;;;;6120422;28;83814;-66
2021/06/25 14:15:16;;;;;;;14.77;10.13;;;27.40;57.00;;;;;;6127286;28;83664;-66
2021/06/25 14:18:17;;;;;;;18.95;9.75;;;27.40;57.00;;;;;;6132714;28;83140;-66
2021/06/25 14:21:18;;;;;;;16.23;10.38;;;27.40;57.00;;;;;;6128139;28;84124;-65
2021/06/25 14:24:18;;;;;;;15.52;10.63;;;27.40;57.20;;;;;;6124067;28;82850;-66
2021/06/25 14:27:19;;;;;;;13.00;9.80;;;27.40;57.50;;;;;;6128809;28;83090;-66
2021/06/25 14:30:19;;;;;;;14.40;10.15;;;27.40;57.30;;;;;;6133872;28;83319;-67
2021/06/25 14:33:20;;;;;;;12.75;9.95;;;27.40;57.70;;;;;;6133941;28;82894;-67
2021/06/25 14:36:23;;;;;;;16.38;10.60;;;27.40;57.40;;;;;;6133748;28;83045;-67
2021/06/25 14:39:24;;;;;;;15.73;11.38;;;27.40;57.90;;;;;;6130132;28;82865;-67
2021/06/25 14:42:25;;;;;;;18.90;11.50;;;27.30;58.20;;;;;;6129059;28;83251;-66
2021/06/25 14:45:25;;;;;;;17.13;12.35;;;27.30;57.60;;;;;;6121628;28;84060;-67
2021/06/25 14:48:26;;;;;;;16.20;11.38;;;27.30;57.60;;;;;;6131211;28;85016;-67
2021/06/25 14:51:26;;;;;;;19.73;11.98;;;27.30;57.70;;;;;;6128845;28;82899;-67
2021/06/25 14:54:27;;;;;;;21.90;12.35;;;27.40;57.50;;;;;;6127722;28;84108;-67
2021/06/25 14:57:27;;;;;;;21.50;12.88;;;27.40;57.60;;;;;;6124703;28;83373;-67
2021/06/25 15:00:28;;;;;;;18.70;14.15;;;27.40;57.20;;;;;;6128629;28;83971;-65
2021/06/25 15:03:28;;;;;;;18.05;13.70;;;27.40;57.20;;;;;;6125994;28;84260;-67
2021/06/25 15:06:29;;;;;;;22.40;13.02;;;27.40;57.20;;;;;;6119146;28;84436;-66
2021/06/25 15:09:29;;;;;;;19.58;13.20;;;27.40;57.20;;;;;;6121009;28;83600;-67
2021/06/25 15:12:30;;;;;;;23.55;13.75;;;27.40;57.30;;;;;;6131063;28;85601;-65
2021/06/25 15:15:30;;;;;;;21.98;13.30;;;27.40;58.00;;;;;;6129778;28;85902;-67
2021/06/25 15:18:31;;;;;;;20.20;13.48;;;27.40;57.40;;;;;;6129780;28;83268;-66
2021/06/25 15:21:31;;;;;;;20.17;15.35;;;27.40;57.30;;;;;;6129181;28;83405;-67
2021/06/25 15:24:32;;;;;;;20.00;14.70;;;27.40;57.60;;;;;;6127963;28;82831;-67
2021/06/25 15:27:32;;;;;;;21.25;14.95;;;27.40;57.90;;;;;;6126593;28;83113;-67
2021/06/25 15:30:35;;;;;;;17.23;13.00;;;27.40;57.70;;;;;;6127251;28;83198;-66
2021/06/25 15:33:36;;;;;;;21.92;13.85;;;27.40;57.70;;;;;;6126254;28;82954;-68
2021/06/25 15:36:36;;;;;;;25.27;13.48;;;27.40;57.80;;;;;;6129870;28;83031;-68
2021/06/25 15:39:37;;;;;;;23.38;15.70;;;27.40;58.00;;;;;;6125180;28;83335;-67
2021/06/25 15:42:37;;;;;;;22.48;17.02;;;27.40;59.20;;;;;;6128490;28;83040;-66